Wetterdaten: Woche 13.09.21 - 19.09.21 (KW37)
Datum Zeit Temp. Aussen Temp. o. S. Temp +5cm Feuchte Auss Luftdruck Regen Sonnenschein Regendauer Solar Windben Empfang
13.09.2021 00:00 15,3 C 14,4 C 13,4 C 93 % 1019,1 hPa 0,0 l/m 0,00 h 0,00 h 0 W/m 3,8 km/h (1 Bft) 98,47 %
13.09.2021 01:00 15,2 C 14,4 C 13,4 C 93 % 1019,2 hPa 0,0 l/m 0,00 h 0,03 h 0 W/m 2,9 km/h (1 Bft) 97,21 %
13.09.2021 02:00 15,1 C 14,4 C 13,5 C 92 % 1019,1 hPa 0,0 l/m 0,00 h 0,00 h 0 W/m 1,8 km/h (1 Bft) 96,79 %
13.09.2021 03:00 14,9 C 13,7 C 13,1 C 92 % 1018,9 hPa 0,0 l/m 0,00 h 0,00 h 0 W/m 0,5 km/h (0 Bft) 98,47 %
13.09.2021 04:00 14,4 C 13,2 C 12,7 C 93 % 1018,9 hPa 0,0 l/m 0,00 h 0,00 h 0 W/m 0,6 km/h (0 Bft) 98,11 %
13.09.2021 05:00 13,6 C 12,2 C 12,0 C 93 % 1018,7 hPa 0,0 l/m 0,00 h 0,00 h 0 W/m 0,0 km/h (0 Bft) 96,18 %
13.09.2021 06:00 12,8 C 11,7 C 11,5 C 94 % 1018,8 hPa 0,0 l/m 0,00 h 0,00 h 0 W/m 0,2 km/h (0 Bft) 97,28 %
13.09.2021 07:00 12,3 C 11,3 C 11,2 C 95 % 1019,0 hPa 0,0 l/m 0,00 h 0,00 h 20 W/m 0,0 km/h (0 Bft) 98,32 %
13.09.2021 08:00 12,8 C 12,8 C 12,4 C 96 % 1019,4 hPa 0,0 l/m 0,00 h 0,00 h 60 W/m 1,1 km/h (0 Bft) 94,01 %
13.09.2021 09:00 14,3 C 15,0 C 14,0 C 97 % 1019,5 hPa 0,0 l/m 0,00 h 0,00 h 107 W/m 2,2 km/h (1 Bft) 97,66 %
13.09.2021 10:00 15,9 C 17,3 C 15,5 C 94 % 1019,8 hPa 0,0 l/m 0,20 h 0,00 h 185 W/m 6,4 km/h (2 Bft) 99,36 %
13.09.2021 11:00 18,0 C 20,2 C 18,3 C 83 % 1020,1 hPa 0,0 l/m 0,73 h 0,00 h 425 W/m 7,5 km/h (2 Bft) 94,92 %
13.09.2021 12:00 19,6 C 21,8 C 19,8 C 73 % 1019,7 hPa 0,0 l/m 0,80 h 0,00 h 486 W/m 7,2 km/h (2 Bft) 98,70 %
13.09.2021 13:00 20,4 C 22,0 C 18,4 C 68 % 1019,3 hPa 0,0 l/m 0,77 h 0,00 h 512 W/m 7,4 km/h (2 Bft) 97,44 %
13.09.2021 14:00 21,6 C 25,9 C 18,7 C 65 % 1019,0 hPa 0,0 l/m 1,00 h 0,00 h 595 W/m 7,7 km/h (2 Bft) 98,65 %
13.09.2021 15:00 22,2 C 24,7 C 18,9 C 63 % 1018,3 hPa 0,0 l/m 1,00 h 0,00 h 501 W/m 6,6 km/h (2 Bft) 96,18 %
13.09.2021 16:00 21,9 C 25,7 C 19,1 C 65 % 1017,9 hPa 0,0 l/m 1,00 h 0,00 h 378 W/m 7,5 km/h (2 Bft) 97,94 %
13.09.2021 17:00 21,4 C 23,3 C 18,5 C 67 % 1017,7 hPa 0,0 l/m 0,60 h 0,00 h 223 W/m 6,2 km/h (2 Bft) 98,43 %
13.09.2021 18:00 21,2 C 22,8 C 17,9 C 69 % 1017,3 hPa 0,0 l/m 0,40 h 0,00 h 113 W/m 5,3 km/h (1 Bft) 96,36 %
13.09.2021 19:00 19,0 C 17,9 C 15,4 C 77 % 1017,1 hPa 0,0 l/m 0,00 h 0,00 h 21 W/m 2,9 km/h (1 Bft) 94,57 %
13.09.2021 20:00 17,8 C 16,3 C 14,2 C 80 % 1017,2 hPa 0,0 l/m 0,00 h 0,00 h 0 W/m 0,5 km/h (0 Bft) 98,51 %
13.09.2021 21:00 16,8 C 16,1 C 13,8 C 82 % 1017,4 hPa 0,0 l/m 0,00 h 0,00 h 0 W/m 2,8 km/h (1 Bft) 96,73 %
13.09.2021 22:00 16,3 C 15,6 C 13,6 C 85 % 1017,2 hPa 0,0 l/m 0,00 h 0,00 h 0 W/m 2,6 km/h (1 Bft) 95,39 %
13.09.2021 23:00 15,9 C 15,2 C 13,3 C 86 % 1017,0 hPa 0,0 l/m 0,00 h 0,00 h 0 W/m 1,7 km/h (1 Bft) 96,66 %
14.09.2021 00:00 15,2 C 14,2 C 12,6 C 88 % 1016,8 hPa 0,0 l/m 0,00 h 0,00 h 0 W/m 1,9 km/h (1 Bft) 99,79 %
14.09.2021 01:00 14,5 C 13,6 C 12,1 C 89 % 1016,5 hPa 0,0 l/m 0,00 h 0,00 h 0 W/m 1,1 km/h (0 Bft) 94,43 %
14.09.2021 02:00 13,9 C 12,9 C 11,7 C 91 % 1016,2 hPa 0,0 l/m 0,00 h 0,00 h 0 W/m 0,4 km/h (0 Bft) 98,00 %
14.09.2021 03:00 13,3 C 12,4 C 11,1 C 93 % 1016,0 hPa 0,0 l/m 0,00 h 0,00 h 0 W/m 1,3 km/h (1 Bft) 98,98 %
14.09.2021 04:00 12,9 C 11,9 C 11,1 C 93 % 1015,9 hPa 0,0 l/m 0,00 h 0,00 h 0 W/m 0,1 km/h (0 Bft) 96,52 %
14.09.2021 05:00 12,6 C 11,7 C 11,1 C 94 % 1015,5 hPa 0,0 l/m 0,00 h 0,00 h 0 W/m 0,5 km/h (0 Bft) 97,90 %
14.09.2021 06:00 12,3 C 11,7 C 10,6 C 95 % 1015,0 hPa 0,0 l/m 0,00 h 0,00 h 0 W/m 2,2 km/h (1 Bft) 97,40 %
14.09.2021 07:00 12,2 C 11,8 C 11,2 C 95 % 1015,1 hPa 0,0 l/m 0,20 h 0,00 h 26 W/m 0,3 km/h (0 Bft) 98,87 %
14.09.2021 08:00 13,1 C 13,5 C 12,4 C 96 % 1015,0 hPa 0,0 l/m 0,00 h 0,00 h 79 W/m 3,6 km/h (1 Bft) 95,23 %
14.09.2021 09:00 14,7 C 15,6 C 14,3 C 97 % 1015,0 hPa 0,0 l/m 0,07 h 0,00 h 127 W/m 3,6 km/h (1 Bft) 98,42 %
14.09.2021 10:00 17,1 C 18,2 C 16,2 C 91 % 1015,0 hPa 0,0 l/m 0,10 h 0,00 h 161 W/m 6,9 km/h (2 Bft) 98,65 %
14.09.2021 11:00 20,2 C 22,0 C 20,0 C 79 % 1014,8 hPa 0,0 l/m 0,80 h 0,00 h 415 W/m 7,3 km/h (2 Bft) 96,41 %
14.09.2021 12:00 22,4 C 23,3 C 20,8 C 73 % 1014,5 hPa 0,0 l/m 0,67 h 0,00 h 444 W/m 7,7 km/h (2 Bft) 97,89 %
14.09.2021 13:00 23,3 C 24,0 C 20,7 C 71 % 1014,0 hPa 0,0 l/m 0,60 h 0,00 h 430 W/m 8,6 km/h (2 Bft) 97,73 %
14.09.2021 14:00 24,4 C 25,7 C 21,3 C 68 % 1013,7 hPa 0,0 l/m 0,53 h 0,00 h 338 W/m 7,8 km/h (2 Bft) 97,94 %
14.09.2021 15:00 24,9 C 24,9 C 21,6 C 67 % 1013,5 hPa 0,0 l/m 0,53 h 0,00 h 283 W/m 8,0 km/h (2 Bft) 96,94 %
14.09.2021 16:00 24,6 C 23,8 C 21,1 C 69 % 1013,1 hPa 0,0 l/m 0,00 h 0,00 h 140 W/m 5,7 km/h (1 Bft) 97,08 %
14.09.2021 17:00 23,9 C 22,7 C 19,9 C 75 % 1012,8 hPa 0,0 l/m 0,00 h 0,27 h 84 W/m 3,9 km/h (1 Bft) 95,94 %
14.09.2021 18:00 23,0 C 22,3 C 19,6 C 80 % 1012,4 hPa 0,0 l/m 0,00 h 0,00 h 46 W/m 3,9 km/h (1 Bft) 90,10 %
14.09.2021 19:00 22,8 C 21,8 C 19,4 C 81 % 1012,1 hPa 0,0 l/m 0,00 h 0,00 h 12 W/m 3,0 km/h (1 Bft) 88,08 %
14.09.2021 20:00 22,4 C 21,4 C 19,2 C 80 % 1012,3 hPa 0,0 l/m 0,00 h 0,00 h 0 W/m 5,4 km/h (1 Bft) 98,43 %
14.09.2021 21:00 22,0 C 20,8 C 18,6 C 80 % 1012,5 hPa 0,0 l/m 0,00 h 0,00 h 0 W/m 3,0 km/h (1 Bft) 95,98 %
14.09.2021 22:00 21,4 C 20,5 C 18,3 C 81 % 1012,6 hPa 0,0 l/m 0,00 h 0,00 h 0 W/m 3,4 km/h (1 Bft) 98,23 %
14.09.2021 23:00 21,0 C 19,8 C 17,8 C 83 % 1012,4 hPa 0,0 l/m 0,00 h 0,00 h 0 W/m 3,5 km/h (1 Bft) 99,00 %
15.09.2021 00:00 20,5 C 19,3 C 17,5 C 86 % 1012,3 hPa 0,0 l/m 0,00 h 0,00 h 0 W/m 2,7 km/h (1 Bft) 95,51 %
15.09.2021 01:00 20,0 C 18,9 C 17,3 C 88 % 1012,0 hPa 0,0 l/m 0,00 h 0,00 h 0 W/m 3,6 km/h (1 Bft) 99,43 %
15.09.2021 02:00 19,7 C 18,9 C 17,3 C 90 % 1011,7 hPa 0,0 l/m 0,00 h 0,00 h 0 W/m 4,6 km/h (1 Bft) 97,30 %
15.09.2021 03:00 19,5 C 18,5 C 16,9 C 91 % 1011,3 hPa 0,0 l/m 0,00 h 0,20 h 0 W/m 2,5 km/h (1 Bft) 96,44 %
15.09.2021 04:00 19,3 C 18,3 C 16,9 C 93 % 1010,7 hPa 0,0 l/m 0,00 h 0,13 h 0 W/m 3,8 km/h (1 Bft) 98,93 %
15.09.2021 05:00 19,0 C 18,3 C 17,0 C 94 % 1010,4 hPa 0,0 l/m 0,00 h 0,13 h 0 W/m 4,2 km/h (1 Bft) 97,31 %
15.09.2021 06:00 19,0 C 17,9 C 16,7 C 95 % 1010,1 hPa 0,2 l/m 0,00 h 0,48 h 0 W/m 3,3 km/h (1 Bft) 96,68 %
15.09.2021 07:00 19,0 C 17,7 C 16,7 C 96 % 1010,0 hPa 2,4 l/m 0,00 h 0,33 h 3 W/m 2,4 km/h (1 Bft) 100,00 %
15.09.2021 08:00 18,9 C 17,8 C 17,1 C 97 % 1010,2 hPa 0,4 l/m 0,00 h 0,25 h 21 W/m 0,6 km/h (0 Bft) 95,50 %
15.09.2021 09:00 18,9 C 17,8 C 17,3 C 97 % 1010,1 hPa 0,4 l/m 0,00 h 0,20 h 18 W/m 1,7 km/h (1 Bft) 97,22 %
15.09.2021 10:00 19,1 C 18,3 C 17,7 C 98 % 1010,4 hPa 0,0 l/m 0,00 h 0,10 h 57 W/m 8,6 km/h (2 Bft) 96,77 %
15.09.2021 11:00 19,5 C 19,5 C 18,3 C 98 % 1010,5 hPa 0,0 l/m 0,13 h 0,03 h 184 W/m 8,1 km/h (2 Bft) 94,25 %
15.09.2021 12:00 20,0 C 19,6 C 18,6 C 97 % 1010,7 hPa 0,2 l/m 0,00 h 0,17 h 119 W/m 7,1 km/h (2 Bft) 97,53 %
15.09.2021 13:00 20,2 C 20,1 C 18,8 C 96 % 1010,7 hPa 0,0 l/m 0,03 h 0,00 h 188 W/m 7,0 km/h (2 Bft) 98,12 %
15.09.2021 14:00 21,2 C 22,1 C 19,4 C 93 % 1010,5 hPa 0,0 l/m 0,57 h 0,00 h 347 W/m 8,6 km/h (2 Bft) 97,72 %
15.09.2021 15:00 22,2 C 22,8 C 20,0 C 87 % 1010,6 hPa 0,0 l/m 0,50 h 0,00 h 328 W/m 11,3 km/h (2 Bft) 97,22 %
15.09.2021 16:00 21,1 C 20,9 C 19,7 C 86 % 1011,0 hPa 0,0 l/m 0,07 h 0,00 h 178 W/m 16,1 km/h (3 Bft) 96,80 %
15.09.2021 17:00 20,5 C 21,6 C 18,8 C 84 % 1011,4 hPa 0,0 l/m 0,50 h 0,00 h 225 W/m 14,5 km/h (3 Bft) 99,50 %
15.09.2021 18:00 20,3 C 20,8 C 18,4 C 82 % 1011,8 hPa 0,0 l/m 0,37 h 0,00 h 88 W/m 9,5 km/h (2 Bft) 95,58 %
15.09.2021 19:00 19,4 C 18,4 C 17,2 C 85 % 1012,1 hPa 0,0 l/m 0,00 h 0,00 h 18 W/m 6,0 km/h (2 Bft) 97,57 %
15.09.2021 20:00 18,4 C 17,6 C 16,7 C 89 % 1012,7 hPa 0,0 l/m 0,00 h 0,00 h 0 W/m 7,9 km/h (2 Bft) 98,96 %
15.09.2021 21:00 18,3 C 17,6 C 16,5 C 88 % 1013,6 hPa 0,0 l/m 0,00 h 0,00 h 0 W/m 11,2 km/h (2 Bft) 96,23 %
15.09.2021 22:00 17,6 C 16,9 C 15,8 C 87 % 1014,2 hPa 0,0 l/m 0,00 h 0,00 h 0 W/m 14,9 km/h (3 Bft) 97,79 %
15.09.2021 23:00 17,2 C 16,5 C 15,6 C 89 % 1014,5 hPa 0,0 l/m 0,00 h 0,00 h 0 W/m 10,8 km/h (2 Bft) 99,08 %
16.09.2021 00:00 16,6 C 15,9 C 15,2 C 89 % 1014,9 hPa 0,0 l/m 0,00 h 0,00 h 0 W/m 9,6 km/h (2 Bft) 93,71 %
16.09.2021 01:00 16,0 C 15,2 C 14,5 C 86 % 1015,1 hPa 0,0 l/m 0,00 h 0,00 h 0 W/m 7,0 km/h (2 Bft) 98,50 %
16.09.2021 02:00 15,0 C 13,6 C 13,1 C 87 % 1015,2 hPa 0,0 l/m 0,00 h 0,00 h 0 W/m 0,9 km/h (0 Bft) 98,65 %
16.09.2021 03:00 13,9 C 12,8 C 12,3 C 90 % 1015,4 hPa 0,0 l/m 0,00 h 0,00 h 0 W/m 1,0 km/h (0 Bft) 95,94 %
16.09.2021 04:00 13,3 C 12,4 C 12,2 C 92 % 1015,8 hPa 0,0 l/m 0,00 h 0,00 h 0 W/m 2,8 km/h (1 Bft) 97,12 %
16.09.2021 05:00 12,9 C 12,2 C 11,7 C 93 % 1016,1 hPa 0,0 l/m 0,00 h 0,00 h 0 W/m 4,0 km/h (1 Bft) 96,72 %
16.09.2021 06:00 12,7 C 11,9 C 11,7 C 94 % 1016,1 hPa 0,0 l/m 0,00 h 0,00 h 0 W/m 4,2 km/h (1 Bft) 97,36 %
16.09.2021 07:00 12,9 C 12,5 C 12,2 C 95 % 1016,4 hPa 0,0 l/m 0,00 h 0,00 h 15 W/m 5,8 km/h (2 Bft) 96,08 %
16.09.2021 08:00 13,6 C 13,5 C 13,2 C 95 % 1016,7 hPa 0,0 l/m 0,00 h 0,00 h 62 W/m 5,8 km/h (2 Bft) 97,58 %
16.09.2021 09:00 14,7 C 15,0 C 14,5 C 93 % 1016,9 hPa 0,0 l/m 0,00 h 0,00 h 131 W/m 8,7 km/h (2 Bft) 95,08 %
16.09.2021 10:00 16,0 C 16,5 C 15,5 C 88 % 1017,2 hPa 0,0 l/m 0,10 h 0,00 h 180 W/m 11,4 km/h (2 Bft) 95,75 %
16.09.2021 11:00 17,5 C 18,6 C 17,5 C 81 % 1017,3 hPa 0,0 l/m 0,47 h 0,00 h 358 W/m 11,6 km/h (2 Bft) 96,85 %
16.09.2021 12:00 18,1 C 18,5 C 17,2 C 78 % 1017,4 hPa 0,0 l/m 0,20 h 0,00 h 240 W/m 11,1 km/h (2 Bft) 97,86 %
16.09.2021 13:00 18,7 C 19,2 C 17,2 C 76 % 1017,4 hPa 0,0 l/m 0,23 h 0,00 h 305 W/m 11,0 km/h (2 Bft) 95,73 %
16.09.2021 14:00 19,9 C 22,1 C 17,5 C 72 % 1017,3 hPa 0,0 l/m 0,50 h 0,00 h 385 W/m 10,0 km/h (2 Bft) 97,22 %
16.09.2021 15:00 20,1 C 20,3 C 17,6 C 71 % 1017,1 hPa 0,0 l/m 0,33 h 0,00 h 275 W/m 10,5 km/h (2 Bft) 96,23 %
16.09.2021 16:00 20,2 C 22,1 C 17,7 C 71 % 1016,9 hPa 0,0 l/m 0,53 h 0,00 h 300 W/m 12,0 km/h (2 Bft) 98,99 %
16.09.2021 17:00 20,7 C 24,7 C 17,8 C 70 % 1016,8 hPa 0,0 l/m 0,87 h 0,00 h 323 W/m 11,8 km/h (2 Bft) 96,44 %
16.09.2021 18:00 19,9 C 19,2 C 16,9 C 72 % 1017,0 hPa 0,0 l/m 0,03 h 0,00 h 67 W/m 8,4 km/h (2 Bft) 93,96 %
16.09.2021 19:00 18,9 C 17,8 C 15,8 C 77 % 1017,2 hPa 0,0 l/m 0,00 h 0,00 h 22 W/m 3,4 km/h (1 Bft) 96,31 %
16.09.2021 20:00 17,9 C 16,4 C 14,7 C 80 % 1017,4 hPa 0,0 l/m 0,00 h 0,00 h 0 W/m 1,0 km/h (0 Bft) 96,43 %
16.09.2021 21:00 16,5 C 14,5 C 13,1 C 85 % 1017,7 hPa 0,0 l/m 0,00 h 0,00 h 0 W/m 0,0 km/h (0 Bft) 97,37 %
16.09.2021 22:00 15,3 C 13,9 C 12,8 C 89 % 1017,9 hPa 0,0 l/m 0,00 h 0,00 h 0 W/m 0,0 km/h (0 Bft) 99,57 %
16.09.2021 23:00 14,7 C 13,5 C 12,4 C 91 % 1018,0 hPa 0,0 l/m 0,00 h 0,00 h 0 W/m 0,0 km/h (0 Bft) 95,37 %
17.09.2021 00:00 14,1 C 12,8 C 11,9 C 92 % 1018,2 hPa 0,0 l/m 0,00 h 0,00 h 0 W/m 0,0 km/h (0 Bft) 98,43 %
17.09.2021 01:00 13,7 C 12,7 C 12,0 C 93 % 1018,0 hPa 0,0 l/m 0,00 h 0,00 h 0 W/m 0,0 km/h (0 Bft) 97,51 %
17.09.2021 02:00 13,8 C 13,1 C 12,4 C 95 % 1017,9 hPa 0,0 l/m 0,00 h 0,00 h 0 W/m 0,0 km/h (0 Bft) 97,93 %
17.09.2021 03:00 14,0 C 13,4 C 12,8 C 95 % 1017,7 hPa 0,0 l/m 0,00 h 0,00 h 0 W/m 0,2 km/h (0 Bft) 95,97 %
17.09.2021 04:00 14,1 C 13,9 C 13,1 C 95 % 1017,3 hPa 0,0 l/m 0,00 h 0,00 h 0 W/m 0,1 km/h (0 Bft) 98,36 %
17.09.2021 05:00 14,2 C 13,9 C 13,2 C 94 % 1017,0 hPa 0,0 l/m 0,00 h 0,00 h 0 W/m 0,2 km/h (0 Bft) 99,15 %
17.09.2021 06:00 14,2 C 13,9 C 13,4 C 94 % 1016,8 hPa 0,0 l/m 0,00 h 0,00 h 0 W/m 0,3 km/h (0 Bft) 92,86 %
17.09.2021 07:00 14,3 C 13,9 C 13,4 C 94 % 1016,9 hPa 0,0 l/m 0,00 h 0,00 h 7 W/m 0,1 km/h (0 Bft) 98,88 %
17.09.2021 08:00 14,6 C 14,3 C 13,7 C 93 % 1016,9 hPa 0,0 l/m 0,00 h 0,00 h 32 W/m 1,4 km/h (1 Bft) 93,60 %
17.09.2021 09:00 15,1 C 14,9 C 14,3 C 93 % 1016,8 hPa 0,0 l/m 0,00 h 0,00 h 60 W/m 3,8 km/h (1 Bft) 96,65 %
17.09.2021 10:00 16,0 C 16,7 C 15,4 C 91 % 1016,8 hPa 0,0 l/m 0,27 h 0,00 h 195 W/m 4,9 km/h (1 Bft) 98,34 %
17.09.2021 11:00 18,2 C 20,1 C 19,0 C 84 % 1016,8 hPa 0,0 l/m 0,70 h 0,00 h 403 W/m 8,6 km/h (2 Bft) 95,38 %
17.09.2021 12:00 20,3 C 22,0 C 20,9 C 77 % 1016,6 hPa 0,0 l/m 0,80 h 0,00 h 465 W/m 10,0 km/h (2 Bft) 94,36 %
17.09.2021 13:00 20,9 C 21,4 C 19,3 C 76 % 1016,4 hPa 0,0 l/m 0,43 h 0,00 h 289 W/m 8,1 km/h (2 Bft) 99,72 %
17.09.2021 14:00 22,0 C 24,9 C 20,0 C 69 % 1016,0 hPa 0,0 l/m 0,77 h 0,00 h 493 W/m 9,1 km/h (2 Bft) 96,73 %
17.09.2021 15:00 21,8 C 21,1 C 18,9 C 69 % 1015,8 hPa 0,0 l/m 0,00 h 0,00 h 135 W/m 7,2 km/h (2 Bft) 97,36 %
17.09.2021 16:00 21,3 C 21,2 C 18,6 C 71 % 1015,4 hPa 0,0 l/m 0,07 h 0,00 h 166 W/m 5,5 km/h (1 Bft) 96,01 %
17.09.2021 17:00 22,0 C 25,9 C 18,8 C 68 % 1015,2 hPa 0,0 l/m 1,00 h 0,00 h 322 W/m 9,1 km/h (2 Bft) 98,44 %
17.09.2021 18:00 21,8 C 21,2 C 17,9 C 69 % 1015,1 hPa 0,0 l/m 0,23 h 0,00 h 87 W/m 2,9 km/h (1 Bft) 97,27 %
17.09.2021 19:00 20,2 C 18,0 C 15,6 C 78 % 1015,1 hPa 0,0 l/m 0,00 h 0,00 h 21 W/m 0,0 km/h (0 Bft) 96,01 %
17.09.2021 20:00 18,1 C 16,0 C 14,2 C 84 % 1015,3 hPa 0,0 l/m 0,00 h 0,00 h 0 W/m 0,0 km/h (0 Bft) 98,57 %
17.09.2021 21:00 16,8 C 15,6 C 14,0 C 88 % 1015,7 hPa 0,0 l/m 0,00 h 0,00 h 0 W/m 0,0 km/h (0 Bft) 98,15 %
17.09.2021 22:00 16,3 C 14,9 C 13,5 C 90 % 1015,9 hPa 0,0 l/m 0,00 h 0,00 h 0 W/m 0,1 km/h (0 Bft) 97,08 %
17.09.2021 23:00 15,5 C 14,1 C 12,9 C 91 % 1016,2 hPa 0,0 l/m 0,00 h 0,00 h 0 W/m 0,0 km/h (0 Bft) 97,09 %
18.09.2021 00:00 14,8 C 13,7 C 12,8 C 93 % 1016,4 hPa 0,0 l/m 0,00 h 0,00 h 0 W/m 0,4 km/h (0 Bft) 98,79 %
18.09.2021 01:00 14,2 C 13,0 C 12,3 C 94 % 1016,4 hPa 0,0 l/m 0,00 h 0,00 h 0 W/m 0,0 km/h (0 Bft) 96,87 %
18.09.2021 02:00 13,7 C 12,5 C 12,1 C 94 % 1016,4 hPa 0,0 l/m 0,00 h 0,00 h 0 W/m 0,0 km/h (0 Bft) 97,29 %
18.09.2021 03:00 13,1 C 12,0 C 11,6 C 94 % 1016,4 hPa 0,0 l/m 0,00 h 0,00 h 0 W/m 0,0 km/h (0 Bft) 98,22 %
18.09.2021 04:00 12,6 C 11,6 C 11,3 C 95 % 1016,4 hPa 0,0 l/m 0,00 h 0,00 h 0 W/m 0,0 km/h (0 Bft) 98,30 %
18.09.2021 05:00 12,1 C 11,0 C 11,0 C 95 % 1016,1 hPa 0,0 l/m 0,00 h 0,00 h 0 W/m 0,0 km/h (0 Bft) 96,72 %
18.09.2021 06:00 11,6 C 10,6 C 10,6 C 95 % 1016,3 hPa 0,0 l/m 0,00 h 0,00 h 0 W/m 0,0 km/h (0 Bft) 95,28 %
18.09.2021 07:00 11,6 C 10,9 C 10,7 C 96 % 1016,7 hPa 0,0 l/m 0,00 h 0,00 h 17 W/m 0,1 km/h (0 Bft) 98,93 %
18.09.2021 08:00 12,2 C 12,2 C 11,6 C 96 % 1017,0 hPa 0,0 l/m 0,00 h 0,00 h 77 W/m 0,4 km/h (0 Bft) 94,86 %
18.09.2021 09:00 13,4 C 13,8 C 13,2 C 97 % 1017,3 hPa 0,0 l/m 0,00 h 0,00 h 130 W/m 2,8 km/h (1 Bft) 98,01 %
18.09.2021 10:00 15,0 C 16,5 C 15,2 C 98 % 1017,5 hPa 0,0 l/m 0,00 h 0,00 h 188 W/m 3,4 km/h (1 Bft) 97,50 %
18.09.2021 11:00 17,0 C 20,0 C 18,6 C 96 % 1017,5 hPa 0,0 l/m 0,67 h 0,00 h 394 W/m 6,4 km/h (2 Bft) 98,90 %
18.09.2021 12:00 19,9 C 21,8 C 20,4 C 81 % 1017,4 hPa 0,0 l/m 0,67 h 0,00 h 431 W/m 8,3 km/h (2 Bft) 99,93 %
18.09.2021 13:00 21,2 C 22,5 C 19,3 C 72 % 1017,1 hPa 0,0 l/m 0,58 h 0,00 h 495 W/m 8,6 km/h (2 Bft) 100,00 %
18.09.2021 14:00 22,5 C 26,0 C 19,5 C 68 % 1016,7 hPa 0,0 l/m 0,58 h 0,00 h 425 W/m 11,6 km/h (2 Bft) 98,32 %
18.09.2021 15:00 22,4 C 23,9 C 19,5 C 67 % 1016,4 hPa 0,0 l/m 1,00 h 0,00 h 532 W/m 9,7 km/h (2 Bft) 99,93 %
18.09.2021 16:00 22,6 C 24,8 C 19,5 C 66 % 1015,9 hPa 0,0 l/m 0,58 h 0,00 h 297 W/m 9,7 km/h (2 Bft) 99,27 %
18.09.2021 17:00 21,4 C 22,7 C 17,9 C 71 % 1015,7 hPa 0,0 l/m 0,42 h 0,00 h 167 W/m 7,8 km/h (2 Bft) 99,56 %
18.09.2021 18:00 20,6 C 21,6 C 17,3 C 74 % 1015,6 hPa 0,0 l/m 0,42 h 0,00 h 89 W/m 8,1 km/h (2 Bft) 99,78 %
18.09.2021 19:00 18,8 C 17,5 C 15,3 C 78 % 1015,6 hPa 0,0 l/m 0,00 h 0,00 h 13 W/m 4,0 km/h (1 Bft) 99,63 %
18.09.2021 20:00 17,1 C 15,9 C 13,9 C 82 % 1015,7 hPa 0,0 l/m 0,00 h 0,00 h 0 W/m 4,0 km/h (1 Bft) 99,12 %
18.09.2021 21:00 16,1 C 15,2 C 13,3 C 84 % 1016,0 hPa 0,0 l/m 0,00 h 0,00 h 0 W/m 3,7 km/h (1 Bft) 99,71 %
18.09.2021 22:00 15,2 C 14,2 C 12,6 C 86 % 1016,0 hPa 0,0 l/m 0,00 h 0,00 h 0 W/m 3,5 km/h (1 Bft) 98,39 %
18.09.2021 23:00 14,5 C 13,6 C 12,2 C 88 % 1015,8 hPa 0,0 l/m 0,00 h 0,00 h 0 W/m 2,4 km/h (1 Bft) 99,27 %
19.09.2021 00:00 14,2 C 13,6 C 12,1 C 89 % 1015,7 hPa 0,0 l/m 0,00 h 0,00 h 0 W/m 4,5 km/h (1 Bft) 100,00 %
19.09.2021 01:00 13,3 C 12,4 C 11,1 C 91 % 1015,5 hPa 0,0 l/m 0,00 h 0,00 h 0 W/m 4,3 km/h (1 Bft) 99,78 %
19.09.2021 02:00 12,9 C 12,2 C 11,1 C 93 % 1015,3 hPa 0,0 l/m 0,00 h 0,00 h 0 W/m 6,1 km/h (2 Bft) 99,12 %
19.09.2021 03:00 12,7 C 12,0 C 11,0 C 94 % 1015,2 hPa 0,0 l/m 0,00 h 0,00 h 0 W/m 4,3 km/h (1 Bft) 99,20 %
19.09.2021 04:00 12,2 C 11,5 C 10,6 C 94 % 1014,9 hPa 0,0 l/m 0,00 h 0,00 h 0 W/m 4,8 km/h (1 Bft) 100,00 %
19.09.2021 05:00 11,7 C 10,8 C 10,2 C 95 % 1014,7 hPa 0,0 l/m 0,00 h 0,00 h 0 W/m 0,8 km/h (0 Bft) 98,17 %
19.09.2021 06:00 11,2 C 10,6 C 10,0 C 95 % 1014,8 hPa 0,0 l/m 0,00 h 0,00 h 0 W/m 0,0 km/h (0 Bft) 99,85 %
19.09.2021 07:00 11,3 C 10,8 C 10,2 C 96 % 1014,9 hPa 0,0 l/m 0,00 h 0,00 h 16 W/m 0,0 km/h (0 Bft) 99,85 %
19.09.2021 08:00 11,6 C 11,7 C 10,7 C 96 % 1015,0 hPa 0,0 l/m 0,00 h 0,00 h 37 W/m 6,1 km/h (2 Bft) 98,76 %
19.09.2021 09:00 13,0 C 13,7 C 12,5 C 97 % 1015,2 hPa 0,0 l/m 0,00 h 0,00 h 87 W/m 7,0 km/h (2 Bft) 99,64 %
19.09.2021 10:00 15,6 C 16,6 C 14,8 C 90 % 1015,5 hPa 0,0 l/m 0,25 h 0,00 h 162 W/m 10,2 km/h (2 Bft) 100,00 %
19.09.2021 11:00 18,1 C 19,5 C 17,9 C 79 % 1015,7 hPa 0,0 l/m 0,58 h 0,00 h 359 W/m 13,7 km/h (3 Bft) 96,93 %
19.09.2021 12:00 19,4 C 20,1 C 18,4 C 73 % 1015,5 hPa 0,0 l/m 0,50 h 0,00 h 317 W/m 10,8 km/h (2 Bft) 100,00 %
19.09.2021 13:00 19,6 C 20,1 C 17,5 C 74 % 1015,4 hPa 0,0 l/m 0,25 h 0,00 h 286 W/m 10,2 km/h (2 Bft) 98,22 %
19.09.2021 14:00 19,9 C 22,0 C 17,6 C 75 % 1015,2 hPa 0,0 l/m 0,60 h 0,00 h 372 W/m 10,9 km/h (2 Bft) 97,86 %
19.09.2021 15:00 19,8 C 20,8 C 17,6 C 72 % 1014,9 hPa 0,0 l/m 0,50 h 0,00 h 303 W/m 10,1 km/h (2 Bft) 97,37 %
19.09.2021 16:00 19,3 C 20,0 C 17,0 C 71 % 1015,1 hPa 0,0 l/m 0,20 h 0,00 h 201 W/m 10,2 km/h (2 Bft) 98,01 %
19.09.2021 17:00 19,2 C 23,0 C 16,4 C 70 % 1015,3 hPa 0,0 l/m 0,90 h 0,00 h 265 W/m 9,4 km/h (2 Bft) 97,42 %
19.09.2021 18:00 18,6 C 20,2 C 15,5 C 73 % 1015,2 hPa 0,0 l/m 0,50 h 0,00 h 95 W/m 6,8 km/h (2 Bft) 97,50 %
19.09.2021 19:00 16,3 C 15,1 C 13,2 C 79 % 1015,6 hPa 0,0 l/m 0,00 h 0,00 h 10 W/m 4,7 km/h (1 Bft) 97,65 %
19.09.2021 20:00 14,5 C 13,6 C 11,9 C 84 % 1016,2 hPa 0,0 l/m 0,00 h 0,00 h 0 W/m 6,7 km/h (2 Bft) 97,65 %
19.09.2021 21:00 13,6 C 13,2 C 11,5 C 84 % 1016,7 hPa 0,0 l/m 0,00 h 0,00 h 0 W/m 5,5 km/h (1 Bft) 97,86 %
19.09.2021 22:00 13,5 C 12,9 C 11,3 C 85 % 1017,0 hPa 0,0 l/m 0,00 h 0,00 h 0 W/m 7,4 km/h (2 Bft) 97,08 %
19.09.2021 23:00 13,1 C 12,6 C 10,9 C 84 % 1017,3 hPa 0,0 l/m 0,00 h 0,00 h 0 W/m 7,2 km/h (2 Bft) 97,72 %
Min-Datum _ 19.09.21 18.09.21 19.09.21 13.09.21 15.09.21 - - - - 13.09.21 14.09.21
_ Min-Zeit 06:35 05:50 05:20 15:00 07:00 - - - - 00:04 19:46
Minimum _ 11,1 C 10,6 C 10,0 C 61 % 1009,9 hPa - - - - 0,0 km/h (0 Bft) 38,30 %
Max-Datum _ 14.09.21 18.09.21 17.09.21 15.09.21 13.09.21 15.09.21 18.09.21 15.09.21 17.09.21 15.09.21 13.09.21
_ Max-Zeit 15:28 14:10 12:02 10:16 11:10 07:20 11:05 06:55 14:22 10:46 00:00
Maximum _ 25,1 C 29,4 C 24,5 C 98 % 1020,2 hPa 2,4 l/m 0,08 h 0,08 h 881 W/m 32,2 km/h
S-SW (5 Bft)
100,00 %
Durchschnitt _ 17,2 C 17,2 C 15,3 C 85 % 1015,6 hPa #3,6 l/m #28:54 h #2:20 h 210 W/m 4,9 km/h (1 Bft) 97,46 %
© 2021 W. Hausmann